Time;durP1;ratioP1;P1;durP2;ratioP2;P2;SDS_P1;SDS_P2;PMS_P1;PMS_P2;Temp;Humidity;BMP_temperature;BMP_pressure;BME280_temperature;BME280_humidity;BME280_pressure;Samples;Min_cycle;Max_cycle;Signal;HPM_P1;HPM_P2
2023/01/17 13:12:54;;;;;;;6.53;4.97;;;;;;;;;;567645;23;20541;-84
2023/01/17 13:15:24;;;;;;;8.57;5.37;;;;;;;;;;4982814;28;20221;-88
2023/01/17 13:18:05;;;;;;;6.87;5.27;;;;;;;;;;4975399;28;20207;-87
2023/01/17 13:20:34;;;;;;;7.87;5.77;;;;;;;;;;4981205;28;20233;-89
2023/01/17 13:23:09;;;;;;;6.00;4.80;;;;;;;;;;4967778;28;20199;-85
2023/01/17 13:25:48;;;;;;;8.67;5.43;;;;;;;;;;4983156;28;20183;-88
2023/01/17 13:28:17;;;;;;;8.67;5.30;;;;;;;;;;4988850;28;20237;-88
2023/01/17 13:30:49;;;;;;;9.57;5.10;;;;;;;;;;5003541;28;20191;-88
2023/01/17 13:33:41;;;;;;;6.27;5.13;;;;;;;;;;4998025;28;20215;-89
2023/01/17 13:36:17;;;;;;;7.17;4.60;;;;;;;;;;4966296;28;20223;-88
2023/01/17 13:38:56;;;;;;;7.10;5.17;;;;;;;;;;4980314;28;20270;-87
2023/01/17 13:41:22;;;;;;;7.20;5.17;;;;;;;;;;5008848;28;20229;-88
2023/01/17 13:46:52;;;;;;;5.27;4.57;;;;;;;;;;4992244;28;20617;-88
2023/01/17 13:49:27;;;;;;;6.47;4.43;;;;;;;;;;4992079;28;20575;-88
2023/01/17 13:52:03;;;;;;;5.33;3.97;;;;;;;;;;4976572;28;20171;-88
2023/01/17 13:54:31;;;;;;;4.30;3.87;;;;;;;;;;4977933;28;20215;-88
2023/01/17 13:57:16;;;;;;;5.33;3.87;;;;;;;;;;5017099;23;20235;-88
2023/01/17 13:59:42;;;;;;;8.93;3.67;;;;;;;;;;4977207;28;20187;-88
2023/01/17 14:02:28;;;;;;;7.33;3.43;;;;;;;;;;4965245;28;20243;-84
2023/01/17 14:05:09;;;;;;;4.97;3.30;;;;;;;;;;4998216;23;20733;-84
2023/01/17 14:07:42;;;;;;;5.23;3.33;;;;;;;;;;4944675;28;20605;-84
2023/01/17 14:10:20;;;;;;;3.13;2.60;;;;;;;;;;4957293;28;20180;-88
2023/01/17 14:15:28;;;;;;;6.43;2.63;;;;;;;;;;5014319;27;198901;-89
2023/01/17 14:17:56;;;;;;;6.23;2.93;;;;;;;;;;5045415;28;20231;-89
2023/01/17 14:20:29;;;;;;;5.23;3.17;;;;;;;;;;5041877;28;20209;-90
2023/01/17 14:22:56;;;;;;;4.03;2.10;;;;;;;;;;5039126;28;20189;-87
2023/01/17 14:25:28;;;;;;;7.10;3.33;;;;;;;;;;5045395;28;20196;-85
2023/01/17 14:28:02;;;;;;;7.20;2.27;;;;;;;;;;5043448;28;20272;-89
2023/01/17 14:30:31;;;;;;;5.23;3.43;;;;;;;;;;5076200;28;20205;-85
2023/01/17 14:33:01;;;;;;;4.00;2.63;;;;;;;;;;5027888;28;20695;-85
2023/01/17 14:35:28;;;;;;;5.13;2.47;;;;;;;;;;5052888;28;20178;-86
2023/01/17 14:38:02;;;;;;;3.23;2.17;;;;;;;;;;5029590;28;20189;-87
2023/01/17 14:40:32;;;;;;;5.67;2.53;;;;;;;;;;5038390;28;20646;-84
2023/01/17 14:43:00;;;;;;;4.37;2.60;;;;;;;;;;5029905;28;20532;-86
2023/01/17 14:45:27;;;;;;;3.93;2.40;;;;;;;;;;5029256;28;20265;-85
2023/01/17 14:47:55;;;;;;;4.07;2.77;;;;;;;;;;5077724;28;20193;-85
2023/01/17 14:50:28;;;;;;;4.60;2.67;;;;;;;;;;5041681;28;20180;-85
2023/01/17 14:53:07;;;;;;;3.37;2.57;;;;;;;;;;5041225;28;20205;-87
2023/01/17 14:55:34;;;;;;;2.80;2.13;;;;;;;;;;5044280;28;20193;-86
2023/01/17 14:58:00;;;;;;;3.13;2.10;;;;;;;;;;5064568;28;20220;-86
2023/01/17 15:00:29;;;;;;;5.30;2.33;;;;;;;;;;5064381;28;20185;-85
2023/01/17 15:02:56;;;;;;;3.77;2.37;;;;;;;;;;5039134;28;20243;-85
2023/01/17 15:05:26;;;;;;;8.77;2.90;;;;;;;;;;5041777;28;20192;-90
2023/01/17 15:07:53;;;;;;;5.17;2.63;;;;;;;;;;5037145;28;20201;-88
2023/01/17 15:10:27;;;;;;;6.73;2.13;;;;;;;;;;5034827;28;20186;-86
2023/01/17 15:12:55;;;;;;;5.30;2.23;;;;;;;;;;5044930;28;20202;-86
2023/01/17 15:15:34;;;;;;;2.67;2.30;;;;;;;;;;5043102;28;20235;-87
2023/01/17 15:18:20;;;;;;;5.07;2.40;;;;;;;;;;5046206;28;20204;-86
2023/01/17 15:20:58;;;;;;;4.13;2.77;;;;;;;;;;5028797;28;20178;-88
2023/01/17 15:23:25;;;;;;;4.63;2.93;;;;;;;;;;5028070;28;20185;-86
2023/01/17 15:25:52;;;;;;;4.33;3.33;;;;;;;;;;5022096;28;20193;-87
2023/01/17 15:28:18;;;;;;;4.20;2.20;;;;;;;;;;5028707;28;20174;-86
2023/01/17 15:31:03;;;;;;;3.00;2.23;;;;;;;;;;5025268;28;20822;-85
2023/01/17 15:33:30;;;;;;;6.33;2.67;;;;;;;;;;5027298;28;20289;-86
2023/01/17 15:36:00;;;;;;;2.97;2.10;;;;;;;;;;5026384;28;20178;-86
2023/01/17 15:38:30;;;;;;;2.10;1.90;;;;;;;;;;5033697;28;20239;-87
2023/01/17 15:40:57;;;;;;;5.10;2.60;;;;;;;;;;5050354;28;20597;-88
2023/01/17 15:43:39;;;;;;;2.83;2.23;;;;;;;;;;5038087;28;20181;-86
2023/01/17 15:46:05;;;;;;;4.80;1.77;;;;;;;;;;5030662;28;20779;-85
2023/01/17 15:48:40;;;;;;;3.97;2.23;;;;;;;;;;5020793;28;20192;-86
2023/01/17 15:51:07;;;;;;;3.73;2.23;;;;;;;;;;5015438;28;20215;-88
2023/01/17 15:53:34;;;;;;;3.47;2.67;;;;;;;;;;5031091;28;20205;-86
2023/01/17 15:56:29;;;;;;;3.67;2.43;;;;;;;;;;5031486;28;20173;-87
2023/01/17 15:59:15;;;;;;;3.90;2.30;;;;;;;;;;5033634;28;20174;-86
2023/01/17 16:01:42;;;;;;;3.80;2.23;;;;;;;;;;5019442;28;20688;-85
2023/01/17 16:04:23;;;;;;;4.67;2.37;;;;;;;;;;5021408;28;20181;-87
2023/01/17 16:07:10;;;;;;;2.47;2.00;;;;;;;;;;5013920;28;20202;-86
2023/01/17 16:09:46;;;;;;;2.43;1.73;;;;;;;;;;5016155;28;20693;-86
2023/01/17 16:12:12;;;;;;;8.57;3.10;;;;;;;;;;5023492;28;20185;-85
2023/01/17 16:15:02;;;;;;;38.17;5.00;;;;;;;;;;5027015;28;20221;-87
2023/01/17 16:17:29;;;;;;;7.80;3.33;;;;;;;;;;5041688;28;20181;-85
2023/01/17 16:19:55;;;;;;;5.33;3.27;;;;;;;;;;5021592;28;20170;-85
2023/01/17 16:22:21;;;;;;;5.70;3.23;;;;;;;;;;5018464;28;20163;-85
2023/01/17 16:24:47;;;;;;;3.47;2.40;;;;;;;;;;5023669;28;20190;-86
2023/01/17 16:27:13;;;;;;;6.27;3.20;;;;;;;;;;5014310;28;20182;-85
2023/01/17 16:29:39;;;;;;;4.73;2.87;;;;;;;;;;5027803;28;20190;-85
2023/01/17 16:32:07;;;;;;;5.30;3.60;;;;;;;;;;5011674;28;20245;-86
2023/01/17 16:34:36;;;;;;;6.57;3.13;;;;;;;;;;5020649;28;20214;-86
2023/01/17 16:37:03;;;;;;;4.83;3.10;;;;;;;;;;5022028;28;20192;-87
2023/01/17 16:39:29;;;;;;;4.00;3.33;;;;;;;;;;5032063;28;20162;-88
2023/01/17 16:42:00;;;;;;;7.70;4.00;;;;;;;;;;5026021;28;20206;-85
2023/01/17 16:44:26;;;;;;;5.80;3.67;;;;;;;;;;5027926;28;20181;-86
2023/01/17 16:46:53;;;;;;;5.13;3.10;;;;;;;;;;5027709;28;20186;-85
2023/01/17 16:49:19;;;;;;;5.97;3.27;;;;;;;;;;5011627;28;20185;-87
2023/01/17 16:51:51;;;;;;;6.53;2.80;;;;;;;;;;5022195;28;20702;-86
2023/01/17 16:54:17;;;;;;;4.90;2.40;;;;;;;;;;5029225;28;20335;-88
2023/01/17 16:56:43;;;;;;;5.83;2.53;;;;;;;;;;5038774;28;20181;-87
2023/01/17 16:59:09;;;;;;;7.27;3.77;;;;;;;;;;5017446;28;20189;-87
2023/01/17 17:01:42;;;;;;;5.03;2.83;;;;;;;;;;5016498;28;20175;-87
2023/01/17 17:04:10;;;;;;;4.53;3.30;;;;;;;;;;5034760;28;20194;-86
2023/01/17 17:06:36;;;;;;;5.53;3.10;;;;;;;;;;5015508;28;20665;-85
2023/01/17 17:09:02;;;;;;;5.53;3.50;;;;;;;;;;5021381;28;20256;-87
2023/01/17 17:11:28;;;;;;;5.43;3.10;;;;;;;;;;5023587;28;20236;-88
2023/01/17 17:13:54;;;;;;;6.90;3.77;;;;;;;;;;5020615;28;20222;-86
2023/01/17 17:16:26;;;;;;;8.50;3.80;;;;;;;;;;5013288;28;20662;-87
2023/01/17 17:18:59;;;;;;;8.53;3.87;;;;;;;;;;5028146;28;20166;-86
2023/01/17 17:21:26;;;;;;;5.17;3.60;;;;;;;;;;5014009;28;20216;-86
2023/01/17 17:23:56;;;;;;;7.37;3.40;;;;;;;;;;5017586;28;20358;-85
2023/01/17 17:26:27;;;;;;;7.77;3.60;;;;;;;;;;5019523;28;20581;-86
2023/01/17 17:28:54;;;;;;;7.77;3.70;;;;;;;;;;5030697;28;20169;-86
2023/01/17 17:31:20;;;;;;;9.77;3.53;;;;;;;;;;5030807;28;20159;-86
2023/01/17 17:33:46;;;;;;;5.97;3.43;;;;;;;;;;5020257;28;20194;-86
2023/01/17 17:36:12;;;;;;;6.53;3.93;;;;;;;;;;5021015;28;20182;-85
2023/01/17 17:38:52;;;;;;;8.90;3.73;;;;;;;;;;5028351;28;20184;-85
2023/01/17 17:41:20;;;;;;;7.03;3.70;;;;;;;;;;5028913;28;20313;-85
2023/01/17 17:43:46;;;;;;;5.87;3.60;;;;;;;;;;5028248;28;20255;-87
2023/01/17 17:46:12;;;;;;;5.97;3.93;;;;;;;;;;5029648;28;20628;-86
2023/01/17 17:48:38;;;;;;;6.83;4.23;;;;;;;;;;5029333;28;20217;-86
2023/01/17 17:51:04;;;;;;;10.13;4.23;;;;;;;;;;5029886;28;20181;-85
2023/01/17 17:53:31;;;;;;;8.27;4.23;;;;;;;;;;5018777;28;20206;-86
2023/01/17 17:56:02;;;;;;;6.37;3.40;;;;;;;;;;5015131;28;20187;-85
2023/01/17 17:58:29;;;;;;;6.03;4.23;;;;;;;;;;5017847;28;20187;-87
2023/01/17 18:00:55;;;;;;;10.37;4.73;;;;;;;;;;5017685;28;20192;-85
2023/01/17 18:03:21;;;;;;;8.67;4.70;;;;;;;;;;5018409;28;20175;-87
2023/01/17 18:05:47;;;;;;;5.63;4.03;;;;;;;;;;5012666;28;20186;-85
2023/01/17 18:08:13;;;;;;;7.37;4.10;;;;;;;;;;5058124;23;20245;-84
2023/01/17 18:10:41;;;;;;;12.27;5.20;;;;;;;;;;5027869;28;20170;-83
2023/01/17 18:13:07;;;;;;;8.37;4.53;;;;;;;;;;5013439;28;20203;-84
2023/01/17 18:15:33;;;;;;;8.17;4.43;;;;;;;;;;5028173;28;20574;-85
2023/01/17 18:17:59;;;;;;;5.77;4.33;;;;;;;;;;5012606;28;20191;-84
2023/01/17 18:20:25;;;;;;;9.07;4.80;;;;;;;;;;5037253;23;20256;-84
2023/01/17 18:22:52;;;;;;;6.73;4.07;;;;;;;;;;5036881;28;20174;-84
2023/01/17 18:25:18;;;;;;;6.27;3.83;;;;;;;;;;5047119;28;20192;-84
2023/01/17 18:27:44;;;;;;;6.10;4.87;;;;;;;;;;5049490;28;20268;-85
2023/01/17 18:30:11;;;;;;;6.07;4.73;;;;;;;;;;5046372;28;20169;-84
2023/01/17 18:32:37;;;;;;;7.10;4.57;;;;;;;;;;5035405;28;20182;-88
2023/01/17 18:35:04;;;;;;;6.10;4.87;;;;;;;;;;5048178;28;20197;-87
2023/01/17 18:37:30;;;;;;;6.07;4.30;;;;;;;;;;5041458;28;20276;-85
2023/01/17 18:39:56;;;;;;;5.00;4.03;;;;;;;;;;5033503;28;20548;-84
2023/01/17 18:42:22;;;;;;;10.17;4.60;;;;;;;;;;5047340;28;20165;-83
2023/01/17 18:44:48;;;;;;;6.10;4.47;;;;;;;;;;5049012;28;20717;-85
2023/01/17 18:47:14;;;;;;;6.00;4.23;;;;;;;;;;5043046;28;20632;-85
2023/01/17 18:49:40;;;;;;;6.27;5.27;;;;;;;;;;5048759;28;20607;-84
2023/01/17 18:52:08;;;;;;;4.87;4.10;;;;;;;;;;5038238;28;20192;-84
2023/01/17 18:54:34;;;;;;;9.73;4.00;;;;;;;;;;5046031;28;20199;-85
2023/01/17 18:57:00;;;;;;;5.70;4.70;;;;;;;;;;5051935;28;20180;-85
2023/01/17 18:59:26;;;;;;;4.97;3.90;;;;;;;;;;5052559;28;20153;-85
2023/01/17 19:01:52;;;;;;;7.20;4.27;;;;;;;;;;5044613;28;20181;-84
2023/01/17 19:04:18;;;;;;;4.70;3.90;;;;;;;;;;5055778;28;20181;-84
2023/01/17 19:06:45;;;;;;;5.17;3.87;;;;;;;;;;5053411;28;20241;-86
2023/01/17 19:09:12;;;;;;;5.97;4.27;;;;;;;;;;5036934;28;20173;-85
2023/01/17 19:11:38;;;;;;;5.40;3.47;;;;;;;;;;5043215;28;20177;-87
2023/01/17 19:14:05;;;;;;;5.30;4.10;;;;;;;;;;5057966;28;20466;-85
2023/01/17 19:16:33;;;;;;;5.70;4.33;;;;;;;;;;5043138;28;20181;-84
2023/01/17 19:19:04;;;;;;;8.13;4.53;;;;;;;;;;5057792;28;20153;-84
2023/01/17 19:21:30;;;;;;;5.73;4.00;;;;;;;;;;5044315;28;20711;-84
2023/01/17 19:23:56;;;;;;;5.37;4.13;;;;;;;;;;5036819;28;20185;-83
2023/01/17 19:26:25;;;;;;;4.73;4.07;;;;;;;;;;5032155;28;20198;-82
2023/01/17 19:28:51;;;;;;;4.63;4.13;;;;;;;;;;5017198;28;20179;-84
2023/01/17 19:31:22;;;;;;;5.50;3.90;;;;;;;;;;5020585;28;20241;-85
2023/01/17 19:33:49;;;;;;;7.10;4.13;;;;;;;;;;5036779;28;20210;-85
2023/01/17 19:36:17;;;;;;;5.23;4.10;;;;;;;;;;5036066;28;20172;-85
2023/01/17 19:38:44;;;;;;;4.83;4.13;;;;;;;;;;5026660;28;20187;-84
2023/01/17 19:41:11;;;;;;;5.43;3.93;;;;;;;;;;5024702;28;20178;-84
2023/01/17 19:43:38;;;;;;;4.60;3.97;;;;;;;;;;5026053;28;20174;-84
2023/01/17 19:46:04;;;;;;;5.87;4.30;;;;;;;;;;5033599;28;20236;-83
2023/01/17 19:48:30;;;;;;;5.87;4.20;;;;;;;;;;5026234;28;20185;-83
2023/01/17 19:51:02;;;;;;;6.20;4.00;;;;;;;;;;5018495;28;20182;-83
2023/01/17 19:53:28;;;;;;;6.23;4.03;;;;;;;;;;5023719;28;20206;-84
2023/01/17 19:55:54;;;;;;;6.50;4.23;;;;;;;;;;5023866;28;20201;-84
2023/01/17 19:58:20;;;;;;;6.73;4.13;;;;;;;;;;5025351;28;20651;-84
2023/01/17 20:00:46;;;;;;;5.27;4.73;;;;;;;;;;5017794;28;20178;-84
2023/01/17 20:03:12;;;;;;;7.20;5.10;;;;;;;;;;5021839;28;20195;-84
2023/01/17 20:05:38;;;;;;;6.97;4.50;;;;;;;;;;5019117;28;20183;-85
2023/01/17 20:08:05;;;;;;;5.40;4.13;;;;;;;;;;5023421;28;20232;-83
2023/01/17 20:10:31;;;;;;;8.60;4.63;;;;;;;;;;5034334;28;20623;-83
2023/01/17 20:12:57;;;;;;;7.10;4.97;;;;;;;;;;5027746;28;20192;-83
2023/01/17 20:15:25;;;;;;;7.10;4.67;;;;;;;;;;5023823;28;20603;-84
2023/01/17 20:17:51;;;;;;;5.87;4.20;;;;;;;;;;5022380;28;20243;-84
2023/01/17 20:20:18;;;;;;;7.77;4.43;;;;;;;;;;5021229;28;20660;-83
2023/01/17 20:22:44;;;;;;;5.57;4.97;;;;;;;;;;5025600;28;20181;-83
2023/01/17 20:25:11;;;;;;;8.73;5.33;;;;;;;;;;5025904;28;20189;-86
2023/01/17 20:27:39;;;;;;;8.47;5.83;;;;;;;;;;5033560;28;20231;-83
2023/01/17 20:30:06;;;;;;;6.43;5.73;;;;;;;;;;5025809;28;20240;-83
2023/01/17 20:32:32;;;;;;;6.93;5.47;;;;;;;;;;5032926;28;20186;-84
2023/01/17 20:34:58;;;;;;;6.90;5.63;;;;;;;;;;5035139;28;20198;-83
2023/01/17 20:42:37;;;;;;;8.10;4.83;;;;;;;;;;5070606;28;20223;-88
2023/01/17 20:45:04;;;;;;;6.27;5.27;;;;;;;;;;5077003;28;20244;-88
2023/01/17 20:47:30;;;;;;;8.33;5.57;;;;;;;;;;5071085;28;20231;-87
2023/01/17 20:49:56;;;;;;;6.30;5.20;;;;;;;;;;5074228;28;20530;-88
2023/01/17 20:52:22;;;;;;;6.90;5.40;;;;;;;;;;5074924;28;20196;-88
2023/01/17 20:54:50;;;;;;;9.03;5.40;;;;;;;;;;5072568;28;20192;-89
2023/01/17 20:57:16;;;;;;;9.97;5.17;;;;;;;;;;5064052;28;20173;-89
2023/01/17 20:59:44;;;;;;;5.83;5.23;;;;;;;;;;5074665;28;20259;-89
2023/01/17 21:02:11;;;;;;;6.57;5.87;;;;;;;;;;5077715;28;20164;-88
2023/01/17 21:04:37;;;;;;;6.30;4.87;;;;;;;;;;5074481;28;20264;-87
2023/01/17 21:07:03;;;;;;;6.67;5.37;;;;;;;;;;5067193;28;20196;-88
2023/01/17 21:09:29;;;;;;;7.27;5.53;;;;;;;;;;5071759;28;20192;-88
2023/01/17 21:12:00;;;;;;;7.10;6.03;;;;;;;;;;5071913;28;20188;-86
2023/01/17 21:14:30;;;;;;;6.93;5.90;;;;;;;;;;5073873;28;20219;-86
2023/01/17 21:16:56;;;;;;;6.27;5.03;;;;;;;;;;5073915;28;20177;-88
2023/01/17 21:19:22;;;;;;;6.80;5.40;;;;;;;;;;5074859;28;20281;-88
2023/01/17 21:21:48;;;;;;;5.83;5.03;;;;;;;;;;5066280;28;20188;-89
2023/01/17 21:24:17;;;;;;;5.77;5.00;;;;;;;;;;5073119;28;20270;-88
2023/01/17 21:26:45;;;;;;;7.13;5.37;;;;;;;;;;5070754;28;20291;-87
2023/01/17 21:29:11;;;;;;;6.67;5.17;;;;;;;;;;5069817;28;20227;-86
2023/01/17 21:31:39;;;;;;;5.67;4.87;;;;;;;;;;5064564;28;20246;-86
2023/01/17 21:34:06;;;;;;;6.67;5.40;;;;;;;;;;5067209;28;20670;-87
2023/01/17 21:36:34;;;;;;;6.13;4.93;;;;;;;;;;5070158;28;20617;-86
2023/01/17 21:39:03;;;;;;;7.70;5.23;;;;;;;;;;5069166;28;20670;-86
2023/01/17 21:41:31;;;;;;;6.77;4.80;;;;;;;;;;5063956;28;20682;-87
2023/01/17 21:43:59;;;;;;;6.87;5.20;;;;;;;;;;5060924;28;20580;-87
2023/01/17 21:46:25;;;;;;;5.93;4.37;;;;;;;;;;5071199;28;20196;-87
2023/01/17 21:48:51;;;;;;;6.03;5.00;;;;;;;;;;5072844;28;20203;-86
2023/01/17 21:51:18;;;;;;;6.30;5.47;;;;;;;;;;5073157;28;20184;-86
2023/01/17 21:53:44;;;;;;;6.47;4.90;;;;;;;;;;5069686;28;20207;-87
2023/01/17 21:58:58;;;;;;;5.03;4.03;;;;;;;;;;5062837;28;20346;-86
2023/01/17 22:01:28;;;;;;;5.67;4.97;;;;;;;;;;5063028;28;20196;-87
2023/01/17 22:03:59;;;;;;;5.57;4.30;;;;;;;;;;5053913;28;20260;-88
2023/01/17 22:06:27;;;;;;;8.07;4.43;;;;;;;;;;5053259;28;20488;-87
2023/01/17 22:08:53;;;;;;;5.20;4.67;;;;;;;;;;5065367;28;20192;-87
2023/01/17 22:11:20;;;;;;;5.20;4.50;;;;;;;;;;5066863;28;20271;-87
2023/01/17 22:13:46;;;;;;;5.57;4.70;;;;;;;;;;5053594;28;20564;-86
2023/01/17 22:16:17;;;;;;;5.93;4.57;;;;;;;;;;5064797;28;20203;-87
2023/01/17 22:18:43;;;;;;;8.27;4.83;;;;;;;;;;5067552;28;20248;-86
2023/01/17 22:21:13;;;;;;;7.93;4.90;;;;;;;;;;5073188;28;20199;-87
2023/01/17 22:23:39;;;;;;;6.07;5.00;;;;;;;;;;5072479;28;20226;-87
2023/01/17 22:26:09;;;;;;;5.80;4.57;;;;;;;;;;5057391;28;20180;-87
2023/01/17 22:28:36;;;;;;;5.83;4.73;;;;;;;;;;5054127;28;20725;-87
2023/01/17 22:31:07;;;;;;;5.70;4.50;;;;;;;;;;5064919;28;20313;-87
2023/01/17 22:33:33;;;;;;;5.47;4.43;;;;;;;;;;5063939;28;20205;-87
2023/01/17 22:35:59;;;;;;;6.57;4.73;;;;;;;;;;5074469;28;20245;-86
2023/01/17 22:38:26;;;;;;;6.20;4.87;;;;;;;;;;5059813;28;20208;-86
2023/01/17 22:40:52;;;;;;;7.73;5.03;;;;;;;;;;5063346;28;20224;-88
2023/01/17 22:43:18;;;;;;;5.43;4.33;;;;;;;;;;5076598;28;20180;-87
2023/01/17 22:45:44;;;;;;;5.50;4.47;;;;;;;;;;5070772;28;20190;-87
2023/01/17 22:48:11;;;;;;;5.93;4.50;;;;;;;;;;5075572;28;20189;-87
2023/01/17 22:50:37;;;;;;;4.57;3.97;;;;;;;;;;5074445;28;20233;-87
2023/01/17 22:53:03;;;;;;;7.43;4.83;;;;;;;;;;5072974;28;20204;-86
2023/01/17 22:55:29;;;;;;;7.23;4.27;;;;;;;;;;5060375;28;20631;-86
2023/01/17 22:57:55;;;;;;;4.83;3.97;;;;;;;;;;5066235;28;20251;-86
2023/01/17 23:00:21;;;;;;;5.70;4.60;;;;;;;;;;5071460;28;20181;-87
2023/01/17 23:02:47;;;;;;;7.37;4.23;;;;;;;;;;5059268;28;20185;-86
2023/01/17 23:05:14;;;;;;;5.97;4.30;;;;;;;;;;5067613;28;20483;-87
2023/01/17 23:07:42;;;;;;;5.93;4.17;;;;;;;;;;5059928;28;20694;-88
2023/01/17 23:10:10;;;;;;;6.13;4.50;;;;;;;;;;5060482;28;20177;-87
2023/01/17 23:12:36;;;;;;;4.97;4.47;;;;;;;;;;5066134;28;20200;-87
2023/01/17 23:20:32;;;;;;;4.77;4.20;;;;;;;;;;5071690;28;20188;-87
2023/01/17 23:22:58;;;;;;;5.97;4.50;;;;;;;;;;5084143;28;20427;-87
2023/01/17 23:25:24;;;;;;;5.00;4.27;;;;;;;;;;5062420;28;20426;-87
2023/01/17 23:30:39;;;;;;;5.87;4.23;;;;;;;;;;5065679;28;20629;-87
2023/01/17 23:33:06;;;;;;;7.43;4.23;;;;;;;;;;5055604;28;20172;-86
2023/01/17 23:35:34;;;;;;;6.50;4.53;;;;;;;;;;5068402;28;20646;-87
2023/01/17 23:43:21;;;;;;;4.70;4.20;;;;;;;;;;5071702;28;20488;-87
2023/01/17 23:43:31;;;;;;;5.13;4.23;;;;;;;;;;5076242;28;20487;-87
2023/01/17 23:45:58;;;;;;;10.63;4.73;;;;;;;;;;5065636;28;20424;-87
2023/01/17 23:48:27;;;;;;;5.17;4.10;;;;;;;;;;5068575;28;20782;-87
2023/01/17 23:51:11;;;;;;;6.00;4.20;;;;;;;;;;5055657;28;20195;-87
2023/01/17 23:53:38;;;;;;;5.37;4.20;;;;;;;;;;5062292;28;20479;-86
2023/01/17 23:56:15;;;;;;;7.03;4.57;;;;;;;;;;5059556;28;20432;-87
2023/01/17 23:58:42;;;;;;;7.20;4.77;;;;;;;;;;5073571;28;20254;-86
